Time;durP1;ratioP1;P1;durP2;ratioP2;P2;SDS_P1;SDS_P2;PMS_P1;PMS_P2;Temp;Humidity;BMP_temperature;BMP_pressure;BME280_temperature;BME280_humidity;BME280_pressure;Samples;Min_cycle;Max_cycle;Signal;HPM_P1;HPM_P2
2022/10/17 00:00:31;;;;;;;0.00;0.00;;;;;;;;;;4972678;28;20043;-82
2022/10/17 00:02:57;;;;;;;0.00;0.00;;;;;;;;;;4972967;28;20038;-82
2022/10/17 00:05:23;;;;;;;0.00;0.00;;;;;;;;;;4974109;28;20050;-82
2022/10/17 00:07:50;;;;;;;0.00;0.00;;;;;;;;;;4972207;28;20401;-82
2022/10/17 00:10:16;;;;;;;0.00;0.00;;;;;;;;;;4973783;28;20090;-82
2022/10/17 00:12:42;;;;;;;0.00;0.00;;;;;;;;;;4973606;28;20081;-82
2022/10/17 00:15:08;;;;;;;0.00;0.00;;;;;;;;;;4972352;28;20074;-82
2022/10/17 00:17:34;;;;;;;0.00;0.00;;;;;;;;;;4972219;28;20039;-82
2022/10/17 00:20:00;;;;;;;0.00;0.00;;;;;;;;;;4972457;28;20042;-82
2022/10/17 00:22:26;;;;;;;0.00;0.00;;;;;;;;;;4972228;28;20035;-82
2022/10/17 00:24:53;;;;;;;0.00;0.00;;;;;;;;;;4972324;28;20490;-82
2022/10/17 00:27:19;;;;;;;0.00;0.00;;;;;;;;;;4972760;28;20463;-82
2022/10/17 00:29:49;;;;;;;0.00;0.00;;;;;;;;;;4971935;28;20090;-82
2022/10/17 00:32:15;;;;;;;0.00;0.00;;;;;;;;;;4956537;28;20046;-82
2022/10/17 00:34:41;;;;;;;0.00;0.00;;;;;;;;;;4956333;28;20038;-82
2022/10/17 00:37:07;;;;;;;0.00;0.00;;;;;;;;;;4973652;28;20537;-82
2022/10/17 00:39:33;;;;;;;0.00;0.00;;;;;;;;;;4971906;28;20046;-82
2022/10/17 00:41:59;;;;;;;0.00;0.00;;;;;;;;;;4973416;28;20379;-82
2022/10/17 00:44:31;;;;;;;0.00;0.00;;;;;;;;;;4955958;28;20047;-82
2022/10/17 00:46:58;;;;;;;0.00;0.00;;;;;;;;;;4956144;28;20054;-82
2022/10/17 00:49:25;;;;;;;0.00;0.00;;;;;;;;;;4971827;28;20046;-82
2022/10/17 00:51:53;;;;;;;0.00;0.00;;;;;;;;;;4972230;28;20043;-82
2022/10/17 00:54:22;;;;;;;0.00;0.00;;;;;;;;;;4972247;28;20049;-82
2022/10/17 00:56:49;;;;;;;0.00;0.00;;;;;;;;;;4972064;28;20046;-82
2022/10/17 00:59:15;;;;;;;0.00;0.00;;;;;;;;;;4971815;28;20070;-82
2022/10/17 01:01:42;;;;;;;0.00;0.00;;;;;;;;;;4972456;28;20043;-83
2022/10/17 01:04:09;;;;;;;0.00;0.00;;;;;;;;;;4972161;28;20046;-82
2022/10/17 01:06:35;;;;;;;0.00;0.00;;;;;;;;;;4972653;28;20053;-82
2022/10/17 01:09:01;;;;;;;0.00;0.00;;;;;;;;;;4975715;28;20410;-82
2022/10/17 01:11:39;;;;;;;0.00;0.00;;;;;;;;;;4977422;28;20066;-82
2022/10/17 01:14:11;;;;;;;0.00;0.00;;;;;;;;;;4975740;28;20047;-82
2022/10/17 01:16:47;;;;;;;0.00;0.00;;;;;;;;;;4976205;28;20137;-82
2022/10/17 01:19:26;;;;;;;0.00;0.00;;;;;;;;;;4975551;28;20079;-82
2022/10/17 01:21:52;;;;;;;0.00;0.00;;;;;;;;;;4975828;28;20043;-82
2022/10/17 01:24:32;;;;;;;0.00;0.00;;;;;;;;;;4975626;28;20121;-82
2022/10/17 01:27:01;;;;;;;0.00;0.00;;;;;;;;;;4975700;28;20059;-82
2022/10/17 01:29:33;;;;;;;0.00;0.00;;;;;;;;;;4976489;28;20118;-82
2022/10/17 01:32:00;;;;;;;0.00;0.00;;;;;;;;;;4943718;28;20055;-82
2022/10/17 01:34:35;;;;;;;0.00;0.00;;;;;;;;;;4959635;28;20054;-82
2022/10/17 01:37:13;;;;;;;0.00;0.00;;;;;;;;;;4959660;28;20046;-82
2022/10/17 01:39:46;;;;;;;0.00;0.00;;;;;;;;;;4943605;28;20104;-82
2022/10/17 01:42:23;;;;;;;0.10;0.00;;;;;;;;;;4959512;28;20454;-82
2022/10/17 01:44:55;;;;;;;0.00;0.00;;;;;;;;;;4976603;28;20114;-82
2022/10/17 01:47:23;;;;;;;0.00;0.00;;;;;;;;;;4959707;28;20043;-82
2022/10/17 01:49:50;;;;;;;0.00;0.00;;;;;;;;;;4959051;28;20047;-82
2022/10/17 01:52:20;;;;;;;0.00;0.00;;;;;;;;;;4976750;28;20042;-82
2022/10/17 01:54:49;;;;;;;0.00;0.00;;;;;;;;;;4959042;28;20038;-83
2022/10/17 01:57:23;;;;;;;0.00;0.00;;;;;;;;;;4959423;28;20457;-82
2022/10/17 01:59:51;;;;;;;0.00;0.00;;;;;;;;;;4958956;28;20054;-82
2022/10/17 02:02:18;;;;;;;0.00;0.00;;;;;;;;;;4959050;28;20053;-82
2022/10/17 02:04:44;;;;;;;0.00;0.00;;;;;;;;;;4976328;28;20122;-82
2022/10/17 02:07:12;;;;;;;0.00;0.00;;;;;;;;;;4958792;28;20051;-82
2022/10/17 02:09:38;;;;;;;0.00;0.00;;;;;;;;;;4958927;28;20039;-82
2022/10/17 02:12:04;;;;;;;0.00;0.00;;;;;;;;;;4959185;28;20035;-82
2022/10/17 02:14:39;;;;;;;0.00;0.00;;;;;;;;;;4942897;28;20539;-82
2022/10/17 02:17:14;;;;;;;0.00;0.00;;;;;;;;;;4959466;28;20046;-82
2022/10/17 02:19:50;;;;;;;0.00;0.00;;;;;;;;;;4958217;28;20493;-82
2022/10/17 02:22:16;;;;;;;;;;;;;;;;;;4959499;28;20053;-81
2022/10/17 02:24:45;;;;;;;0.00;0.00;;;;;;;;;;4942961;28;20338;-82
2022/10/17 02:27:13;;;;;;;0.00;0.00;;;;;;;;;;4958571;28;20062;-82
2022/10/17 02:29:46;;;;;;;0.00;0.00;;;;;;;;;;4971026;28;20125;-82
2022/10/17 02:32:18;;;;;;;0.00;0.00;;;;;;;;;;4974693;28;20038;-82
2022/10/17 02:34:48;;;;;;;0.00;0.00;;;;;;;;;;4974540;28;20117;-82
2022/10/17 02:37:16;;;;;;;0.00;0.00;;;;;;;;;;4974480;28;20086;-83
2022/10/17 02:39:43;;;;;;;0.00;0.00;;;;;;;;;;4975362;28;20550;-82
2022/10/17 02:42:11;;;;;;;0.00;0.00;;;;;;;;;;4974385;28;20054;-82
2022/10/17 02:44:39;;;;;;;0.00;0.00;;;;;;;;;;4974310;28;20089;-82
2022/10/17 02:47:25;;;;;;;0.00;0.00;;;;;;;;;;4957999;28;20043;-82
2022/10/17 02:49:52;;;;;;;0.00;0.00;;;;;;;;;;4973797;28;20055;-81
2022/10/17 02:52:39;;;;;;;0.00;0.00;;;;;;;;;;4974582;28;20474;-81
2022/10/17 02:55:13;;;;;;;0.00;0.00;;;;;;;;;;4975144;28;20390;-82
2022/10/17 02:57:41;;;;;;;0.00;0.00;;;;;;;;;;4974125;28;20071;-81
2022/10/17 03:00:10;;;;;;;0.00;0.00;;;;;;;;;;4973563;28;20039;-82
2022/10/17 03:02:40;;;;;;;0.00;0.00;;;;;;;;;;4957881;28;20054;-81
2022/10/17 03:05:07;;;;;;;0.00;0.00;;;;;;;;;;4957545;28;20051;-82
2022/10/17 03:07:33;;;;;;;0.00;0.00;;;;;;;;;;4957791;28;20042;-81
2022/10/17 03:09:59;;;;;;;0.00;0.00;;;;;;;;;;4975102;28;20126;-82
2022/10/17 03:12:25;;;;;;;0.00;0.00;;;;;;;;;;4941956;28;20070;-82
2022/10/17 03:14:51;;;;;;;0.00;0.00;;;;;;;;;;4974874;28;20043;-82
2022/10/17 03:17:17;;;;;;;0.00;0.00;;;;;;;;;;4957627;28;20469;-82
2022/10/17 03:19:43;;;;;;;0.00;0.00;;;;;;;;;;4957227;28;20101;-82
2022/10/17 03:22:09;;;;;;;0.00;0.00;;;;;;;;;;4957841;28;20078;-82
2022/10/17 03:24:35;;;;;;;0.00;0.00;;;;;;;;;;4957135;28;20043;-81
2022/10/17 03:27:01;;;;;;;0.00;0.00;;;;;;;;;;4974771;28;20438;-82
2022/10/17 03:29:27;;;;;;;0.00;0.00;;;;;;;;;;4956842;28;20058;-82
2022/10/17 03:31:53;;;;;;;0.00;0.00;;;;;;;;;;4957264;28;20042;-82
2022/10/17 03:34:19;;;;;;;0.10;0.00;;;;;;;;;;4941547;28;20046;-82
2022/10/17 03:36:45;;;;;;;0.00;0.00;;;;;;;;;;4957435;28;20054;-82
2022/10/17 03:39:11;;;;;;;0.00;0.00;;;;;;;;;;4957303;28;20477;-82
2022/10/17 03:41:37;;;;;;;0.00;0.00;;;;;;;;;;4940844;28;20058;-82
2022/10/17 03:44:03;;;;;;;0.00;0.00;;;;;;;;;;4957017;28;20209;-82
2022/10/17 03:46:29;;;;;;;0.00;0.00;;;;;;;;;;4956852;28;20062;-82
2022/10/17 03:48:55;;;;;;;0.00;0.00;;;;;;;;;;4957112;28;20047;-82
2022/10/17 03:51:21;;;;;;;0.00;0.00;;;;;;;;;;4956908;28;20046;-82
2022/10/17 03:53:47;;;;;;;0.00;0.00;;;;;;;;;;4956926;28;20039;-82
2022/10/17 03:56:15;;;;;;;0.00;0.00;;;;;;;;;;4974290;28;20371;-82
2022/10/17 03:58:42;;;;;;;0.00;0.00;;;;;;;;;;4940736;28;20053;-82
2022/10/17 04:01:08;;;;;;;0.00;0.00;;;;;;;;;;4956564;28;20057;-82
2022/10/17 04:03:35;;;;;;;0.00;0.00;;;;;;;;;;4956775;28;20053;-82
2022/10/17 04:06:02;;;;;;;0.00;0.00;;;;;;;;;;4973965;28;20046;-82
2022/10/17 04:08:28;;;;;;;0.00;0.00;;;;;;;;;;4956757;28;20043;-82
2022/10/17 04:10:58;;;;;;;0.00;0.00;;;;;;;;;;4956602;28;20402;-82
2022/10/17 04:13:24;;;;;;;0.00;0.00;;;;;;;;;;4956507;28;20050;-83
2022/10/17 04:15:53;;;;;;;0.00;0.00;;;;;;;;;;4956543;28;20047;-83
2022/10/17 04:18:19;;;;;;;0.00;0.00;;;;;;;;;;4956592;28;20085;-83
2022/10/17 04:20:45;;;;;;;0.00;0.00;;;;;;;;;;4956273;28;20133;-82
2022/10/17 04:23:11;;;;;;;0.00;0.00;;;;;;;;;;4956428;28;20050;-82
2022/10/17 04:25:37;;;;;;;0.00;0.00;;;;;;;;;;4956362;28;20123;-82
2022/10/17 04:28:03;;;;;;;0.00;0.00;;;;;;;;;;4956217;28;20058;-82
2022/10/17 04:30:29;;;;;;;0.00;0.00;;;;;;;;;;4956095;28;20078;-82
2022/10/17 04:32:55;;;;;;;0.00;0.00;;;;;;;;;;4956258;28;20121;-83
2022/10/17 04:35:21;;;;;;;0.00;0.00;;;;;;;;;;4940088;28;20082;-82
2022/10/17 04:37:47;;;;;;;0.00;0.00;;;;;;;;;;4956278;28;20170;-83
2022/10/17 04:40:13;;;;;;;0.00;0.00;;;;;;;;;;4956047;28;20042;-83
2022/10/17 04:42:39;;;;;;;0.00;0.00;;;;;;;;;;4955774;28;20148;-83
2022/10/17 04:45:06;;;;;;;0.00;0.00;;;;;;;;;;4955946;28;20083;-83
2022/10/17 04:47:31;;;;;;;0.00;0.00;;;;;;;;;;4955998;28;20200;-83
2022/10/17 04:49:57;;;;;;;0.35;0.30;;;;;;;;;;4940198;28;20055;-83
2022/10/17 04:52:24;;;;;;;0.00;0.00;;;;;;;;;;4955903;28;20043;-84
2022/10/17 04:54:50;;;;;;;0.00;0.00;;;;;;;;;;4940338;28;20482;-83
2022/10/17 04:57:17;;;;;;;0.00;0.00;;;;;;;;;;4956129;28;20047;-83
2022/10/17 04:59:43;;;;;;;0.00;0.00;;;;;;;;;;4956133;28;20546;-83
2022/10/17 05:02:09;;;;;;;0.00;0.00;;;;;;;;;;4973439;28;20130;-82
2022/10/17 05:04:35;;;;;;;0.00;0.00;;;;;;;;;;4956238;28;20046;-82
2022/10/17 05:07:01;;;;;;;0.00;0.00;;;;;;;;;;4955652;28;20042;-83
2022/10/17 05:09:27;;;;;;;0.00;0.00;;;;;;;;;;4955908;28;20157;-82
2022/10/17 05:11:53;;;;;;;0.00;0.00;;;;;;;;;;4940001;28;20118;-82
2022/10/17 05:14:19;;;;;;;0.00;0.00;;;;;;;;;;4956209;28;20043;-82
2022/10/17 05:16:45;;;;;;;0.00;0.00;;;;;;;;;;4955791;28;20053;-82
2022/10/17 05:19:11;;;;;;;0.00;0.00;;;;;;;;;;4973201;28;20042;-83
2022/10/17 05:21:37;;;;;;;0.00;0.00;;;;;;;;;;4955741;28;20047;-83
2022/10/17 05:24:07;;;;;;;0.00;0.00;;;;;;;;;;4955967;28;20049;-82
2022/10/17 05:26:33;;;;;;;0.28;0.00;;;;;;;;;;4939724;28;20270;-83
2022/10/17 05:29:01;;;;;;;0.00;0.00;;;;;;;;;;4955769;28;20203;-83
2022/10/17 05:31:28;;;;;;;0.00;0.00;;;;;;;;;;4962083;28;20047;-83
2022/10/17 05:33:54;;;;;;;0.00;0.00;;;;;;;;;;4945772;29;20089;-83
2022/10/17 05:36:20;;;;;;;0.00;0.00;;;;;;;;;;4952189;29;20125;-83
2022/10/17 05:38:50;;;;;;;0.00;0.00;;;;;;;;;;4952117;28;20043;-83
2022/10/17 05:41:16;;;;;;;0.00;0.00;;;;;;;;;;4952108;29;20047;-83
2022/10/17 05:43:42;;;;;;;0.00;0.00;;;;;;;;;;4952212;29;20509;-83
2022/10/17 05:46:09;;;;;;;0.00;0.00;;;;;;;;;;4951923;28;20154;-83
2022/10/17 05:48:35;;;;;;;0.00;0.00;;;;;;;;;;4952131;28;20487;-83
2022/10/17 05:51:02;;;;;;;0.00;0.00;;;;;;;;;;4952042;29;20134;-83
2022/10/17 05:53:31;;;;;;;0.00;0.00;;;;;;;;;;4953949;28;20550;-83
2022/10/17 05:55:58;;;;;;;0.00;0.00;;;;;;;;;;4955598;29;20115;-83
2022/10/17 05:58:24;;;;;;;0.00;0.00;;;;;;;;;;4955270;28;20164;-83
2022/10/17 06:00:51;;;;;;;0.00;0.00;;;;;;;;;;4955218;28;20049;-84
2022/10/17 06:03:17;;;;;;;0.00;0.00;;;;;;;;;;4955334;29;20122;-83
2022/10/17 06:05:42;;;;;;;0.15;0.00;;;;;;;;;;4955343;28;20467;-83
2022/10/17 06:08:08;;;;;;;0.00;0.00;;;;;;;;;;4939186;29;20050;-83
2022/10/17 06:10:34;;;;;;;0.00;0.00;;;;;;;;;;4955491;29;20050;-83
2022/10/17 06:13:00;;;;;;;0.00;0.00;;;;;;;;;;4955125;29;20488;-83
2022/10/17 06:15:26;;;;;;;0.00;0.00;;;;;;;;;;4956670;28;20054;-83
2022/10/17 06:17:52;;;;;;;0.00;0.00;;;;;;;;;;4955367;28;20055;-83
2022/10/17 06:20:18;;;;;;;0.00;0.00;;;;;;;;;;4955587;29;20626;-83
2022/10/17 06:22:44;;;;;;;0.00;0.00;;;;;;;;;;4955620;28;20058;-83
2022/10/17 06:25:10;;;;;;;0.00;0.00;;;;;;;;;;4954872;28;20487;-83
2022/10/17 06:27:36;;;;;;;0.28;0.28;;;;;;;;;;4954611;28;20039;-83
2022/10/17 06:30:02;;;;;;;0.00;0.00;;;;;;;;;;4973949;28;20055;-83
2022/10/17 06:32:28;;;;;;;0.00;0.00;;;;;;;;;;4974589;28;20121;-83
2022/10/17 06:34:54;;;;;;;0.00;0.00;;;;;;;;;;4975721;28;20045;-83
2022/10/17 06:37:20;;;;;;;0.00;0.00;;;;;;;;;;4974236;28;20050;-83
2022/10/17 06:39:46;;;;;;;0.00;0.00;;;;;;;;;;4974198;28;20160;-84
2022/10/17 06:42:12;;;;;;;0.00;0.00;;;;;;;;;;4973807;28;20039;-83
2022/10/17 06:44:40;;;;;;;0.00;0.00;;;;;;;;;;4958040;28;20054;-83
2022/10/17 06:47:06;;;;;;;0.00;0.00;;;;;;;;;;4973790;28;20494;-83
2022/10/17 06:49:33;;;;;;;0.00;0.00;;;;;;;;;;4974225;28;20108;-83
2022/10/17 06:51:59;;;;;;;0.00;0.00;;;;;;;;;;4973843;28;20058;-83
2022/10/17 06:54:26;;;;;;;0.00;0.00;;;;;;;;;;4973994;28;20129;-83
2022/10/17 06:56:53;;;;;;;0.00;0.00;;;;;;;;;;4959347;28;20078;-83
2022/10/17 06:59:19;;;;;;;0.00;0.00;;;;;;;;;;4978872;28;20066;-83
2022/10/17 07:01:45;;;;;;;0.00;0.00;;;;;;;;;;4981167;28;20042;-83
2022/10/17 07:04:11;;;;;;;0.00;0.00;;;;;;;;;;4980948;28;20134;-85
2022/10/17 07:06:37;;;;;;;0.00;0.00;;;;;;;;;;4963166;28;20105;-83
2022/10/17 07:09:05;;;;;;;0.00;0.00;;;;;;;;;;4981107;28;20435;-87
2022/10/17 07:11:33;;;;;;;0.00;0.00;;;;;;;;;;4959910;28;20068;-82
2022/10/17 07:13:59;;;;;;;0.00;0.00;;;;;;;;;;4958394;28;20126;-81
2022/10/17 07:16:26;;;;;;;0.00;0.00;;;;;;;;;;4942664;28;20050;-81
2022/10/17 07:18:53;;;;;;;0.00;0.00;;;;;;;;;;4975296;28;20089;-81
2022/10/17 07:21:19;;;;;;;0.00;0.00;;;;;;;;;;4975301;28;20043;-81
2022/10/17 07:23:45;;;;;;;0.00;0.00;;;;;;;;;;4957788;28;20043;-81
2022/10/17 07:26:12;;;;;;;0.00;0.00;;;;;;;;;;4957778;28;20358;-81
2022/10/17 07:28:39;;;;;;;0.00;0.00;;;;;;;;;;4957521;28;20598;-81
2022/10/17 07:31:06;;;;;;;0.00;0.00;;;;;;;;;;4975376;28;20054;-81
2022/10/17 07:33:32;;;;;;;0.00;0.00;;;;;;;;;;4975091;28;20049;-80
2022/10/17 07:35:59;;;;;;;0.00;0.00;;;;;;;;;;4975290;28;20047;-81
2022/10/17 07:38:25;;;;;;;0.00;0.00;;;;;;;;;;4957584;28;20042;-81
2022/10/17 07:40:55;;;;;;;0.00;0.00;;;;;;;;;;4957756;28;20052;-81
2022/10/17 07:43:21;;;;;;;0.00;0.00;;;;;;;;;;4957864;28;20042;-81
2022/10/17 07:45:47;;;;;;;0.00;0.00;;;;;;;;;;4975560;28;20155;-83
2022/10/17 07:48:15;;;;;;;0.00;0.00;;;;;;;;;;4967285;28;20186;-84
2022/10/17 07:50:41;;;;;;;0.00;0.00;;;;;;;;;;4960607;28;20038;-81
2022/10/17 07:53:07;;;;;;;0.00;0.00;;;;;;;;;;4974366;28;20035;-82
2022/10/17 07:55:33;;;;;;;0.00;0.00;;;;;;;;;;4957048;28;20098;-81
2022/10/17 07:57:59;;;;;;;0.00;0.00;;;;;;;;;;4956131;28;20105;-82
2022/10/17 08:00:25;;;;;;;0.00;0.00;;;;;;;;;;4956873;28;20057;-82
2022/10/17 08:02:51;;;;;;;0.00;0.00;;;;;;;;;;4956685;28;20043;-82
2022/10/17 08:05:17;;;;;;;0.00;0.00;;;;;;;;;;4956443;28;20049;-82
2022/10/17 08:07:43;;;;;;;0.00;0.00;;;;;;;;;;4956327;28;20126;-82
2022/10/17 08:10:11;;;;;;;0.00;0.00;;;;;;;;;;4956857;28;20485;-82
2022/10/17 08:12:37;;;;;;;0.00;0.00;;;;;;;;;;4956448;28;20046;-82
2022/10/17 08:15:04;;;;;;;0.00;0.00;;;;;;;;;;4956636;28;20510;-82
2022/10/17 08:17:30;;;;;;;0.00;0.00;;;;;;;;;;4939761;28;20047;-82
2022/10/17 08:19:56;;;;;;;0.00;0.00;;;;;;;;;;4956780;28;20045;-83
2022/10/17 08:22:22;;;;;;;0.00;0.00;;;;;;;;;;4956693;28;20058;-83
2022/10/17 08:24:48;;;;;;;0.00;0.00;;;;;;;;;;4974064;28;20046;-83
2022/10/17 08:27:20;;;;;;;0.00;0.00;;;;;;;;;;4973930;28;20482;-85
2022/10/17 08:29:47;;;;;;;0.00;0.00;;;;;;;;;;4941809;28;20047;-82
2022/10/17 08:32:13;;;;;;;0.00;0.00;;;;;;;;;;4956571;28;20042;-81
2022/10/17 08:34:39;;;;;;;0.00;0.00;;;;;;;;;;4956946;28;20100;-86
2022/10/17 08:37:05;;;;;;;0.00;0.00;;;;;;;;;;4974894;28;20043;-85
2022/10/17 08:39:31;;;;;;;0.00;0.00;;;;;;;;;;4956980;28;20046;-84
2022/10/17 08:42:02;;;;;;;0.00;0.00;;;;;;;;;;4956543;28;20051;-84
2022/10/17 08:44:47;;;;;;;0.00;0.00;;;;;;;;;;4973822;28;20141;-84
2022/10/17 08:47:16;;;;;;;0.00;0.00;;;;;;;;;;4956158;28;20042;-84
2022/10/17 08:49:42;;;;;;;0.00;0.00;;;;;;;;;;4973373;28;20513;-83
2022/10/17 08:52:15;;;;;;;0.00;0.00;;;;;;;;;;4956462;28;20403;-81
2022/10/17 08:54:44;;;;;;;0.00;0.00;;;;;;;;;;4973476;28;20122;-82
2022/10/17 08:57:12;;;;;;;0.00;0.00;;;;;;;;;;4956249;28;20429;-82
2022/10/17 08:59:38;;;;;;;0.00;0.00;;;;;;;;;;4955830;28;20454;-82
2022/10/17 09:02:23;;;;;;;0.00;0.00;;;;;;;;;;4955166;28;20045;-83
2022/10/17 09:04:57;;;;;;;0.00;0.00;;;;;;;;;;4956215;28;20055;-82
2022/10/17 09:07:30;;;;;;;0.00;0.00;;;;;;;;;;4956280;28;20053;-82
2022/10/17 09:09:56;;;;;;;0.00;0.00;;;;;;;;;;4956033;28;20058;-83
2022/10/17 09:12:35;;;;;;;0.00;0.00;;;;;;;;;;4956392;28;20034;-83
2022/10/17 09:15:24;;;;;;;0.00;0.00;;;;;;;;;;4956033;28;20074;-82
2022/10/17 09:17:54;;;;;;;0.00;0.00;;;;;;;;;;4955266;28;20127;-82
2022/10/17 09:20:29;;;;;;;0.00;0.00;;;;;;;;;;4973351;28;20526;-82
2022/10/17 09:22:58;;;;;;;0.00;0.00;;;;;;;;;;4956109;28;20561;-82
2022/10/17 09:25:24;;;;;;;0.00;0.00;;;;;;;;;;4940427;28;20174;-82
2022/10/17 09:27:55;;;;;;;0.10;0.10;;;;;;;;;;4956414;28;20070;-82
2022/10/17 09:30:41;;;;;;;0.00;0.00;;;;;;;;;;4959892;28;20046;-82
2022/10/17 09:33:11;;;;;;;0.00;0.00;;;;;;;;;;4959597;28;20043;-82
2022/10/17 09:35:38;;;;;;;1.25;0.00;;;;;;;;;;4960192;28;20051;-82
2022/10/17 09:38:04;;;;;;;0.00;0.00;;;;;;;;;;4959431;28;20050;-82
2022/10/17 09:40:34;;;;;;;0.00;0.00;;;;;;;;;;4959442;28;20106;-82
2022/10/17 09:43:02;;;;;;;0.20;0.03;;;;;;;;;;4959250;28;20039;-82
2022/10/17 09:45:32;;;;;;;0.00;0.00;;;;;;;;;;4943625;28;20043;-82
2022/10/17 09:48:10;;;;;;;0.00;0.00;;;;;;;;;;4976504;28;20496;-81
2022/10/17 09:50:36;;;;;;;0.00;0.00;;;;;;;;;;4959336;28;20038;-81
2022/10/17 09:53:15;;;;;;;0.00;0.00;;;;;;;;;;4976559;28;20102;-81
2022/10/17 09:55:43;;;;;;;0.00;0.00;;;;;;;;;;4959014;28;20046;-81
2022/10/17 09:58:10;;;;;;;0.00;0.00;;;;;;;;;;4958695;28;20525;-81
2022/10/17 10:00:37;;;;;;;0.00;0.00;;;;;;;;;;4958982;28;20078;-81
2022/10/17 10:03:13;;;;;;;0.00;0.00;;;;;;;;;;4958956;28;20482;-80
2022/10/17 10:05:39;;;;;;;0.00;0.00;;;;;;;;;;4959264;28;20093;-82
2022/10/17 10:08:12;;;;;;;0.00;0.00;;;;;;;;;;4958990;28;20125;-80
2022/10/17 10:10:44;;;;;;;0.00;0.00;;;;;;;;;;4958823;28;20125;-81
2022/10/17 10:13:13;;;;;;;0.00;0.00;;;;;;;;;;4976292;28;20478;-82
2022/10/17 10:15:49;;;;;;;0.00;0.00;;;;;;;;;;4958628;28;20082;-81
2022/10/17 10:18:24;;;;;;;0.00;0.00;;;;;;;;;;4959094;28;20447;-81
2022/10/17 10:21:02;;;;;;;0.00;0.00;;;;;;;;;;4976114;28;20090;-81
2022/10/17 10:23:28;;;;;;;0.00;0.00;;;;;;;;;;4958611;28;20047;-81
2022/10/17 10:25:56;;;;;;;0.00;0.00;;;;;;;;;;4976071;28;20423;-81
2022/10/17 10:28:24;;;;;;;0.00;0.00;;;;;;;;;;4958106;28;20055;-80
2022/10/17 10:30:51;;;;;;;0.00;0.00;;;;;;;;;;4959001;28;20419;-81
2022/10/17 10:33:19;;;;;;;0.00;0.00;;;;;;;;;;4958717;28;20452;-81
2022/10/17 10:35:51;;;;;;;0.00;0.00;;;;;;;;;;4976015;28;20052;-81
2022/10/17 10:38:17;;;;;;;0.00;0.00;;;;;;;;;;4976232;28;20066;-81
2022/10/17 10:40:51;;;;;;;0.00;0.00;;;;;;;;;;4975084;28;20042;-81
2022/10/17 10:43:32;;;;;;;0.00;0.00;;;;;;;;;;4958960;28;20494;-80
2022/10/17 10:45:59;;;;;;;0.00;0.00;;;;;;;;;;4942953;28;20126;-81
2022/10/17 10:48:34;;;;;;;0.00;0.00;;;;;;;;;;4958708;28;20129;-81
2022/10/17 10:51:00;;;;;;;0.00;0.00;;;;;;;;;;4958553;28;20043;-81
2022/10/17 10:53:44;;;;;;;0.00;0.00;;;;;;;;;;4958720;28;20189;-81
2022/10/17 10:56:10;;;;;;;0.00;0.00;;;;;;;;;;4958729;28;20112;-84
2022/10/17 10:58:57;;;;;;;0.00;0.00;;;;;;;;;;4958438;28;20078;-81
2022/10/17 11:01:42;;;;;;;0.00;0.00;;;;;;;;;;4958640;28;20047;-82
2022/10/17 11:04:19;;;;;;;0.20;0.10;;;;;;;;;;4958428;28;20078;-82
2022/10/17 11:06:47;;;;;;;0.00;0.00;;;;;;;;;;4958513;28;20071;-82
2022/10/17 11:09:19;;;;;;;0.00;0.00;;;;;;;;;;4958110;28;20039;-82
2022/10/17 11:11:48;;;;;;;0.00;0.00;;;;;;;;;;4975897;28;20042;-82
2022/10/17 11:14:14;;;;;;;0.00;0.00;;;;;;;;;;4975453;28;20087;-82
2022/10/17 11:16:44;;;;;;;0.00;0.00;;;;;;;;;;4975685;28;20121;-81
2022/10/17 11:19:29;;;;;;;0.00;0.00;;;;;;;;;;4935665;29;20048;-82
2022/10/17 11:21:57;;;;;;;0.00;0.00;;;;;;;;;;4919863;29;20392;-82
2022/10/17 11:24:22;;;;;;;0.00;0.00;;;;;;;;;;4935733;29;20491;-81
2022/10/17 11:26:52;;;;;;;0.00;0.00;;;;;;;;;;4919640;29;20079;-82
2022/10/17 11:29:19;;;;;;;0.00;0.00;;;;;;;;;;4932271;29;20055;-82
2022/10/17 11:31:49;;;;;;;0.00;0.00;;;;;;;;;;4938633;29;20050;-82
2022/10/17 11:34:19;;;;;;;0.00;0.00;;;;;;;;;;4938429;29;20044;-82
2022/10/17 11:36:47;;;;;;;0.00;0.00;;;;;;;;;;4938755;29;20050;-81
2022/10/17 11:39:17;;;;;;;0.20;0.00;;;;;;;;;;4938305;29;20102;-81
2022/10/17 11:41:49;;;;;;;0.00;0.00;;;;;;;;;;4955749;29;20035;-82
2022/10/17 11:44:21;;;;;;;0.00;0.00;;;;;;;;;;4922571;29;20094;-82
2022/10/17 11:46:49;;;;;;;0.00;0.00;;;;;;;;;;4938452;29;20070;-81
2022/10/17 11:49:18;;;;;;;0.00;0.00;;;;;;;;;;4955542;28;20042;-82
2022/10/17 11:51:47;;;;;;;0.00;0.00;;;;;;;;;;4938373;29;20043;-82
2022/10/17 11:54:17;;;;;;;0.00;0.00;;;;;;;;;;4938224;29;20047;-81
2022/10/17 11:56:43;;;;;;;0.00;0.00;;;;;;;;;;4938280;29;20121;-82
2022/10/17 11:59:15;;;;;;;0.00;0.00;;;;;;;;;;4938142;29;20410;-81
2022/10/17 12:01:47;;;;;;;0.00;0.00;;;;;;;;;;4938039;29;20097;-82
2022/10/17 12:04:23;;;;;;;0.00;0.00;;;;;;;;;;4938662;29;20043;-81
2022/10/17 12:07:01;;;;;;;0.00;0.00;;;;;;;;;;4938201;29;20450;-81
2022/10/17 12:09:27;;;;;;;0.00;0.00;;;;;;;;;;4938119;29;20408;-81
2022/10/17 12:11:53;;;;;;;0.00;0.00;;;;;;;;;;4936934;29;20039;-81
2022/10/17 12:14:34;;;;;;;0.00;0.00;;;;;;;;;;4937949;29;20399;-82
2022/10/17 12:17:01;;;;;;;0.00;0.00;;;;;;;;;;4938010;29;20039;-80
2022/10/17 12:19:31;;;;;;;0.00;0.00;;;;;;;;;;4937980;29;20054;-82
2022/10/17 12:22:05;;;;;;;0.00;0.00;;;;;;;;;;4922361;29;20094;-81
2022/10/17 12:24:40;;;;;;;0.00;0.00;;;;;;;;;;4938114;29;20138;-81
2022/10/17 12:27:25;;;;;;;0.52;0.00;;;;;;;;;;4921915;29;20399;-81
2022/10/17 12:29:58;;;;;;;0.00;0.00;;;;;;;;;;4954590;28;20126;-81
2022/10/17 12:32:24;;;;;;;0.00;0.00;;;;;;;;;;4937815;29;20043;-80
2022/10/17 12:34:51;;;;;;;0.00;0.00;;;;;;;;;;4937822;29;20074;-81
2022/10/17 12:37:37;;;;;;;0.00;0.00;;;;;;;;;;4954935;29;20479;-81
2022/10/17 12:40:03;;;;;;;;;;;;;;;;;;4937825;29;20047;-81
2022/10/17 12:42:29;;;;;;;;;;;;;;;;;;4938030;29;19923;-81
2022/10/17 12:44:55;;;;;;;0.00;0.00;;;;;;;;;;4937391;29;19969;-81
2022/10/17 12:47:28;;;;;;;0.00;0.00;;;;;;;;;;4937545;29;20047;-81
2022/10/17 12:49:54;;;;;;;0.00;0.00;;;;;;;;;;4937317;29;20040;-81
2022/10/17 12:52:30;;;;;;;0.00;0.00;;;;;;;;;;4937637;29;20050;-81
2022/10/17 12:55:05;;;;;;;0.00;0.00;;;;;;;;;;4954625;29;20134;-81
2022/10/17 12:57:31;;;;;;;0.00;0.00;;;;;;;;;;4955081;29;20451;-81
2022/10/17 12:59:58;;;;;;;0.00;0.00;;;;;;;;;;4937293;29;20051;-82
2022/10/17 13:02:25;;;;;;;0.00;0.00;;;;;;;;;;4954951;28;20524;-81
2022/10/17 13:05:02;;;;;;;0.00;0.00;;;;;;;;;;4941632;29;20102;-81
2022/10/17 13:07:28;;;;;;;0.00;0.00;;;;;;;;;;4941363;29;20467;-81
2022/10/17 13:09:55;;;;;;;0.00;0.00;;;;;;;;;;4958596;28;20031;-81
2022/10/17 13:12:26;;;;;;;0.00;0.00;;;;;;;;;;4958268;29;20071;-81
2022/10/17 13:14:53;;;;;;;0.00;0.00;;;;;;;;;;4957455;29;20478;-82
2022/10/17 13:17:24;;;;;;;0.00;0.00;;;;;;;;;;4958067;29;20549;-81
2022/10/17 13:19:50;;;;;;;0.00;0.00;;;;;;;;;;4941082;29;20054;-85
2022/10/17 13:22:18;;;;;;;0.00;0.00;;;;;;;;;;4940800;29;20054;-81
2022/10/17 13:24:44;;;;;;;0.00;0.00;;;;;;;;;;4958424;29;20050;-81
2022/10/17 13:27:39;;;;;;;0.00;0.00;;;;;;;;;;4940560;29;20047;-82
2022/10/17 13:30:26;;;;;;;0.00;0.00;;;;;;;;;;4925396;29;20059;-83
2022/10/17 13:32:52;;;;;;;0.00;0.00;;;;;;;;;;4940917;29;20121;-81
2022/10/17 13:35:27;;;;;;;0.00;0.00;;;;;;;;;;4940898;29;20039;-81
2022/10/17 13:37:54;;;;;;;0.15;0.00;;;;;;;;;;4940804;28;20048;-81
2022/10/17 13:40:30;;;;;;;0.00;0.00;;;;;;;;;;4940788;29;20122;-81
2022/10/17 13:42:58;;;;;;;0.00;0.00;;;;;;;;;;4940812;29;20040;-80
2022/10/17 13:45:34;;;;;;;0.00;0.00;;;;;;;;;;4957778;29;20082;-81
2022/10/17 13:48:02;;;;;;;0.10;0.10;;;;;;;;;;4940763;29;20526;-81
2022/10/17 13:50:36;;;;;;;0.00;0.00;;;;;;;;;;4940276;29;20039;-81
2022/10/17 13:53:21;;;;;;;0.00;0.00;;;;;;;;;;4940821;29;20122;-81
2022/10/17 13:55:58;;;;;;;0.00;0.00;;;;;;;;;;4940292;29;20074;-80
2022/10/17 13:58:25;;;;;;;0.00;0.00;;;;;;;;;;4940155;29;20058;-82
2022/10/17 14:00:51;;;;;;;0.00;0.00;;;;;;;;;;4940059;29;20062;-81
2022/10/17 14:03:21;;;;;;;0.00;0.00;;;;;;;;;;4940164;29;20047;-81
2022/10/17 14:06:02;;;;;;;0.00;0.00;;;;;;;;;;4939862;29;20050;-81
2022/10/17 14:08:29;;;;;;;0.00;0.00;;;;;;;;;;4940168;29;20039;-82
2022/10/17 14:10:55;;;;;;;0.00;0.00;;;;;;;;;;4957081;29;20043;-81
2022/10/17 14:13:29;;;;;;;0.00;0.00;;;;;;;;;;4940034;28;20085;-81
2022/10/17 14:15:58;;;;;;;0.00;0.00;;;;;;;;;;4955909;29;20561;-81
2022/10/17 14:18:26;;;;;;;0.00;0.00;;;;;;;;;;4956980;28;20406;-81
2022/10/17 14:20:52;;;;;;;0.00;0.00;;;;;;;;;;4939571;29;20047;-81
2022/10/17 14:23:32;;;;;;;0.00;0.00;;;;;;;;;;4939933;29;20443;-81
2022/10/17 14:26:09;;;;;;;0.00;0.00;;;;;;;;;;4956892;29;20097;-81
2022/10/17 14:28:35;;;;;;;0.00;0.00;;;;;;;;;;4936394;29;20563;-81
2022/10/17 14:31:13;;;;;;;0.00;0.00;;;;;;;;;;4936195;29;20118;-81
2022/10/17 14:33:42;;;;;;;0.00;0.00;;;;;;;;;;4936760;29;20126;-81
2022/10/17 14:36:08;;;;;;;0.00;0.00;;;;;;;;;;4936126;29;20040;-81
2022/10/17 14:38:34;;;;;;;0.00;0.00;;;;;;;;;;4936273;29;20047;-81
2022/10/17 14:41:00;;;;;;;0.00;0.00;;;;;;;;;;4920545;29;20229;-81
2022/10/17 14:43:28;;;;;;;0.00;0.00;;;;;;;;;;4936511;29;20039;-81
2022/10/17 14:45:58;;;;;;;0.00;0.00;;;;;;;;;;4937412;29;20047;-81
2022/10/17 14:48:24;;;;;;;0.00;0.00;;;;;;;;;;4937144;29;20044;-83
2022/10/17 14:51:09;;;;;;;0.00;0.00;;;;;;;;;;4937462;29;20039;-81
2022/10/17 14:53:35;;;;;;;0.00;0.00;;;;;;;;;;4936250;29;20164;-81